Adair Village, Oregon
Current Conditions -  °F | °C
As of 7:15 AM on Monday 24 Nov 2014 (Local Time) from KCVO Reporting Station
Clear Clear  
Wind Chill: 39°   Ceiling: Unl
Heat Index: 39°   Visibility: 5mi
Dew Point: 36°   Wind: 0mph
Humidity: 87%   Direction: NA
Pressure: 30.37"   Gusts: NA
Location:  44.6364°N, 123.28°W
Report Text: KCVO 241515Z AUTO 00000KT 5SM CLR 04/02 A3037 RMK AO1
Loading
Personal Weather Stations






























Interactive Weather Map New forecast layout! Learn more

10-Day Weather Forecast

Advertisements
Track Severe Weather on mobile